sensor_id;sensor_type;location;lat;lon;timestamp;P1;durP1;ratioP1;P2;durP2;ratioP2
72891;SDS011;61032;50.782;6.818;2022-10-16T00:00:34;0.93;;;0.60;;
72891;SDS011;61032;50.782;6.818;2022-10-16T00:01:35;1.50;;;0.60;;
72891;SDS011;61032;50.782;6.818;2022-10-16T00:02:36;1.90;;;0.95;;
72891;SDS011;61032;50.782;6.818;2022-10-16T00:03:37;3.38;;;0.80;;
72891;SDS011;61032;50.782;6.818;2022-10-16T00:04:41;1.40;;;0.52;;
72891;SDS011;61032;50.782;6.818;2022-10-16T00:05:42;1.52;;;0.63;;
72891;SDS011;61032;50.782;6.818;2022-10-16T00:06:44;2.58;;;0.90;;
72891;SDS011;61032;50.782;6.818;2022-10-16T00:07:44;0.82;;;0.65;;
72891;SDS011;61032;50.782;6.818;2022-10-16T00:08:45;0.90;;;0.65;;
72891;SDS011;61032;50.782;6.818;2022-10-16T00:09:46;2.47;;;0.85;;
72891;SDS011;61032;50.782;6.818;2022-10-16T00:10:46;1.10;;;0.77;;
72891;SDS011;61032;50.782;6.818;2022-10-16T00:11:47;1.13;;;0.70;;
72891;SDS011;61032;50.782;6.818;2022-10-16T00:12:47;1.73;;;0.75;;
72891;SDS011;61032;50.782;6.818;2022-10-16T00:13:49;0.93;;;0.60;;
72891;SDS011;61032;50.782;6.818;2022-10-16T00:14:52;1.17;;;0.65;;
72891;SDS011;61032;50.782;6.818;2022-10-16T00:15:54;1.10;;;0.65;;
72891;SDS011;61032;50.782;6.818;2022-10-16T00:16:56;1.08;;;0.73;;
72891;SDS011;61032;50.782;6.818;2022-10-16T00:17:56;1.67;;;0.60;;
72891;SDS011;61032;50.782;6.818;2022-10-16T00:18:57;1.00;;;0.63;;
72891;SDS011;61032;50.782;6.818;2022-10-16T00:19:57;1.88;;;0.70;;
72891;SDS011;61032;50.782;6.818;2022-10-16T00:21:04;1.02;;;0.70;;
72891;SDS011;61032;50.782;6.818;2022-10-16T00:22:10;2.40;;;0.90;;
72891;SDS011;61032;50.782;6.818;2022-10-16T00:23:10;1.23;;;0.65;;
72891;SDS011;61032;50.782;6.818;2022-10-16T00:24:10;2.20;;;0.63;;
72891;SDS011;61032;50.782;6.818;2022-10-16T00:25:11;1.55;;;0.68;;
72891;SDS011;61032;50.782;6.818;2022-10-16T00:26:12;1.77;;;0.85;;
72891;SDS011;61032;50.782;6.818;2022-10-16T00:27:15;2.05;;;0.88;;
72891;SDS011;61032;50.782;6.818;2022-10-16T00:28:15;1.27;;;0.63;;
72891;SDS011;61032;50.782;6.818;2022-10-16T00:29:15;2.33;;;0.70;;
72891;SDS011;61032;50.782;6.818;2022-10-16T00:30:16;1.08;;;0.52;;
72891;SDS011;61032;50.782;6.818;2022-10-16T00:31:17;1.52;;;0.63;;
72891;SDS011;61032;50.782;6.818;2022-10-16T00:32:19;1.50;;;0.90;;
72891;SDS011;61032;50.782;6.818;2022-10-16T00:33:20;1.02;;;0.63;;
72891;SDS011;61032;50.782;6.818;2022-10-16T00:34:20;1.08;;;0.65;;
72891;SDS011;61032;50.782;6.818;2022-10-16T00:35:20;2.35;;;0.75;;
72891;SDS011;61032;50.782;6.818;2022-10-16T00:36:21;1.05;;;0.60;;
72891;SDS011;61032;50.782;6.818;2022-10-16T00:37:24;2.88;;;0.80;;
72891;SDS011;61032;50.782;6.818;2022-10-16T00:38:24;1.25;;;0.73;;
72891;SDS011;61032;50.782;6.818;2022-10-16T00:39:25;1.35;;;0.73;;
72891;SDS011;61032;50.782;6.818;2022-10-16T00:40:25;2.08;;;0.63;;
72891;SDS011;61032;50.782;6.818;2022-10-16T00:41:26;2.40;;;0.70;;
72891;SDS011;61032;50.782;6.818;2022-10-16T00:42:27;0.88;;;0.77;;
72891;SDS011;61032;50.782;6.818;2022-10-16T00:45:52;1.20;;;0.70;;
72891;SDS011;61032;50.782;6.818;2022-10-16T00:46:52;0.95;;;0.60;;
72891;SDS011;61032;50.782;6.818;2022-10-16T00:47:53;3.13;;;0.73;;
72891;SDS011;61032;50.782;6.818;2022-10-16T00:50:08;1.73;;;0.90;;
72891;SDS011;61032;50.782;6.818;2022-10-16T00:51:11;1.50;;;0.57;;
72891;SDS011;61032;50.782;6.818;2022-10-16T00:52:12;0.93;;;0.60;;
72891;SDS011;61032;50.782;6.818;2022-10-16T00:53:14;4.28;;;0.80;;
72891;SDS011;61032;50.782;6.818;2022-10-16T00:55:22;0.98;;;0.60;;
72891;SDS011;61032;50.782;6.818;2022-10-16T00:56:23;1.42;;;0.60;;
72891;SDS011;61032;50.782;6.818;2022-10-16T00:57:24;1.40;;;0.60;;
72891;SDS011;61032;50.782;6.818;2022-10-16T00:58:25;2.53;;;0.60;;
72891;SDS011;61032;50.782;6.818;2022-10-16T00:59:29;2.80;;;0.70;;
72891;SDS011;61032;50.782;6.818;2022-10-16T01:00:32;1.33;;;0.75;;
72891;SDS011;61032;50.782;6.818;2022-10-16T01:01:32;1.27;;;0.60;;
72891;SDS011;61032;50.782;6.818;2022-10-16T01:02:32;1.52;;;0.68;;
72891;SDS011;61032;50.782;6.818;2022-10-16T01:03:34;1.02;;;0.70;;
72891;SDS011;61032;50.782;6.818;2022-10-16T01:04:40;1.20;;;0.82;;
72891;SDS011;61032;50.782;6.818;2022-10-16T01:05:44;1.17;;;0.60;;
72891;SDS011;61032;50.782;6.818;2022-10-16T01:07:09;1.98;;;0.70;;
72891;SDS011;61032;50.782;6.818;2022-10-16T01:08:57;2.17;;;0.65;;
72891;SDS011;61032;50.782;6.818;2022-10-16T01:09:51;1.33;;;0.80;;
72891;SDS011;61032;50.782;6.818;2022-10-16T01:11:16;1.83;;;1.02;;
72891;SDS011;61032;50.782;6.818;2022-10-16T01:12:29;1.38;;;0.70;;
72891;SDS011;61032;50.782;6.818;2022-10-16T01:13:38;1.00;;;0.70;;
72891;SDS011;61032;50.782;6.818;2022-10-16T01:14:45;1.35;;;0.70;;
72891;SDS011;61032;50.782;6.818;2022-10-16T01:17:22;1.85;;;0.63;;
72891;SDS011;61032;50.782;6.818;2022-10-16T01:18:50;0.93;;;0.63;;
72891;SDS011;61032;50.782;6.818;2022-10-16T01:22:04;2.22;;;0.88;;
72891;SDS011;61032;50.782;6.818;2022-10-16T01:23:10;1.02;;;0.63;;
72891;SDS011;61032;50.782;6.818;2022-10-16T01:28:15;2.45;;;0.70;;
72891;SDS011;61032;50.782;6.818;2022-10-16T01:29:35;2.15;;;0.60;;
72891;SDS011;61032;50.782;6.818;2022-10-16T01:30:42;1.70;;;1.00;;
72891;SDS011;61032;50.782;6.818;2022-10-16T01:31:46;1.60;;;0.70;;
72891;SDS011;61032;50.782;6.818;2022-10-16T01:33:08;2.55;;;0.90;;
72891;SDS011;61032;50.782;6.818;2022-10-16T01:34:16;2.67;;;0.90;;
72891;SDS011;61032;50.782;6.818;2022-10-16T01:35:22;1.25;;;0.85;;
72891;SDS011;61032;50.782;6.818;2022-10-16T01:36:27;1.88;;;0.73;;
72891;SDS011;61032;50.782;6.818;2022-10-16T01:37:38;2.42;;;0.75;;
72891;SDS011;61032;50.782;6.818;2022-10-16T01:38:44;0.95;;;0.80;;
72891;SDS011;61032;50.782;6.818;2022-10-16T01:39:49;1.48;;;0.80;;
72891;SDS011;61032;50.782;6.818;2022-10-16T01:40:56;2.20;;;0.90;;
72891;SDS011;61032;50.782;6.818;2022-10-16T01:42:04;1.40;;;0.90;;
72891;SDS011;61032;50.782;6.818;2022-10-16T01:43:10;1.67;;;1.05;;
72891;SDS011;61032;50.782;6.818;2022-10-16T01:45:16;1.95;;;0.98;;
72891;SDS011;61032;50.782;6.818;2022-10-16T01:46:20;1.25;;;1.00;;
72891;SDS011;61032;50.782;6.818;2022-10-16T01:47:22;1.65;;;0.98;;
72891;SDS011;61032;50.782;6.818;2022-10-16T01:48:25;2.42;;;0.98;;
72891;SDS011;61032;50.782;6.818;2022-10-16T01:49:26;2.38;;;1.15;;
72891;SDS011;61032;50.782;6.818;2022-10-16T01:50:31;1.83;;;1.00;;
72891;SDS011;61032;50.782;6.818;2022-10-16T01:51:35;1.45;;;1.08;;
72891;SDS011;61032;50.782;6.818;2022-10-16T01:52:39;2.20;;;1.00;;
72891;SDS011;61032;50.782;6.818;2022-10-16T01:53:42;2.63;;;1.20;;
72891;SDS011;61032;50.782;6.818;2022-10-16T01:54:46;2.33;;;0.95;;
72891;SDS011;61032;50.782;6.818;2022-10-16T01:55:50;1.30;;;0.63;;
72891;SDS011;61032;50.782;6.818;2022-10-16T01:56:55;1.20;;;0.88;;
72891;SDS011;61032;50.782;6.818;2022-10-16T01:57:58;1.35;;;0.85;;
72891;SDS011;61032;50.782;6.818;2022-10-16T01:59:03;0.85;;;0.60;;
72891;SDS011;61032;50.782;6.818;2022-10-16T02:00:10;0.95;;;0.73;;
72891;SDS011;61032;50.782;6.818;2022-10-16T02:01:12;1.48;;;0.93;;
72891;SDS011;61032;50.782;6.818;2022-10-16T02:02:14;1.20;;;0.90;;
72891;SDS011;61032;50.782;6.818;2022-10-16T02:03:18;1.27;;;0.90;;
72891;SDS011;61032;50.782;6.818;2022-10-16T02:04:30;3.33;;;0.82;;
72891;SDS011;61032;50.782;6.818;2022-10-16T02:05:51;2.05;;;0.70;;
72891;SDS011;61032;50.782;6.818;2022-10-16T02:06:55;1.20;;;0.70;;
72891;SDS011;61032;50.782;6.818;2022-10-16T02:07:55;3.65;;;0.70;;
72891;SDS011;61032;50.782;6.818;2022-10-16T02:08:56;4.45;;;0.80;;
72891;SDS011;61032;50.782;6.818;2022-10-16T02:09:56;1.98;;;0.95;;
72891;SDS011;61032;50.782;6.818;2022-10-16T02:10:57;1.65;;;0.57;;
72891;SDS011;61032;50.782;6.818;2022-10-16T02:11:58;1.50;;;0.50;;
72891;SDS011;61032;50.782;6.818;2022-10-16T02:14:14;1.55;;;0.68;;
72891;SDS011;61032;50.782;6.818;2022-10-16T02:15:15;1.75;;;0.63;;
72891;SDS011;61032;50.782;6.818;2022-10-16T02:16:16;1.92;;;0.85;;
72891;SDS011;61032;50.782;6.818;2022-10-16T02:17:16;2.45;;;0.50;;
72891;SDS011;61032;50.782;6.818;2022-10-16T02:18:17;1.92;;;0.60;;
72891;SDS011;61032;50.782;6.818;2022-10-16T02:19:18;1.58;;;0.52;;
72891;SDS011;61032;50.782;6.818;2022-10-16T02:20:22;1.15;;;0.65;;
72891;SDS011;61032;50.782;6.818;2022-10-16T02:21:38;2.22;;;0.70;;
72891;SDS011;61032;50.782;6.818;2022-10-16T02:22:45;1.67;;;0.60;;
72891;SDS011;61032;50.782;6.818;2022-10-16T02:26:28;0.68;;;0.50;;
72891;SDS011;61032;50.782;6.818;2022-10-16T02:27:41;0.90;;;0.40;;
72891;SDS011;61032;50.782;6.818;2022-10-16T02:28:48;3.80;;;0.60;;
72891;SDS011;61032;50.782;6.818;2022-10-16T02:30:14;0.85;;;0.40;;
72891;SDS011;61032;50.782;6.818;2022-10-16T02:31:25;1.65;;;0.40;;
72891;SDS011;61032;50.782;6.818;2022-10-16T02:32:30;0.98;;;0.30;;
72891;SDS011;61032;50.782;6.818;2022-10-16T02:33:34;1.02;;;0.40;;
72891;SDS011;61032;50.782;6.818;2022-10-16T02:34:38;2.47;;;0.47;;
72891;SDS011;61032;50.782;6.818;2022-10-16T02:35:40;0.50;;;0.13;;
72891;SDS011;61032;50.782;6.818;2022-10-16T02:36:43;2.15;;;0.28;;
72891;SDS011;61032;50.782;6.818;2022-10-16T02:37:46;0.60;;;0.30;;
72891;SDS011;61032;50.782;6.818;2022-10-16T02:38:47;1.10;;;0.30;;
72891;SDS011;61032;50.782;6.818;2022-10-16T02:39:48;1.38;;;0.30;;
72891;SDS011;61032;50.782;6.818;2022-10-16T02:40:48;1.25;;;0.40;;
72891;SDS011;61032;50.782;6.818;2022-10-16T02:41:49;1.02;;;0.50;;
72891;SDS011;61032;50.782;6.818;2022-10-16T02:42:50;1.02;;;0.40;;
72891;SDS011;61032;50.782;6.818;2022-10-16T02:43:54;1.25;;;0.20;;
72891;SDS011;61032;50.782;6.818;2022-10-16T02:44:55;1.55;;;0.43;;
72891;SDS011;61032;50.782;6.818;2022-10-16T02:45:55;1.10;;;0.22;;
72891;SDS011;61032;50.782;6.818;2022-10-16T02:46:55;0.45;;;0.30;;
72891;SDS011;61032;50.782;6.818;2022-10-16T02:47:56;1.23;;;0.47;;
72891;SDS011;61032;50.782;6.818;2022-10-16T02:48:56;0.75;;;0.45;;
72891;SDS011;61032;50.782;6.818;2022-10-16T02:49:56;1.42;;;0.40;;
72891;SDS011;61032;50.782;6.818;2022-10-16T02:50:57;0.82;;;0.50;;
72891;SDS011;61032;50.782;6.818;2022-10-16T02:51:57;1.63;;;0.50;;
72891;SDS011;61032;50.782;6.818;2022-10-16T02:52:57;1.27;;;0.50;;
72891;SDS011;61032;50.782;6.818;2022-10-16T02:53:58;1.08;;;0.38;;
72891;SDS011;61032;50.782;6.818;2022-10-16T02:54:58;0.75;;;0.20;;
72891;SDS011;61032;50.782;6.818;2022-10-16T02:55:58;1.05;;;0.38;;
72891;SDS011;61032;50.782;6.818;2022-10-16T02:56:59;0.73;;;0.32;;
72891;SDS011;61032;50.782;6.818;2022-10-16T02:57:59;0.45;;;0.30;;
72891;SDS011;61032;50.782;6.818;2022-10-16T02:58:59;0.77;;;0.20;;
72891;SDS011;61032;50.782;6.818;2022-10-16T03:00:00;0.63;;;0.30;;
72891;SDS011;61032;50.782;6.818;2022-10-16T03:01:00;1.25;;;0.45;;
72891;SDS011;61032;50.782;6.818;2022-10-16T03:02:00;0.82;;;0.30;;
72891;SDS011;61032;50.782;6.818;2022-10-16T03:03:01;1.58;;;0.30;;
72891;SDS011;61032;50.782;6.818;2022-10-16T03:04:01;1.67;;;0.30;;
72891;SDS011;61032;50.782;6.818;2022-10-16T03:05:01;0.73;;;0.32;;
72891;SDS011;61032;50.782;6.818;2022-10-16T03:06:02;1.98;;;0.60;;
72891;SDS011;61032;50.782;6.818;2022-10-16T03:07:02;1.77;;;0.40;;
72891;SDS011;61032;50.782;6.818;2022-10-16T03:08:03;0.90;;;0.32;;
72891;SDS011;61032;50.782;6.818;2022-10-16T03:09:03;4.45;;;0.60;;
72891;SDS011;61032;50.782;6.818;2022-10-16T03:10:04;0.50;;;0.20;;
72891;SDS011;61032;50.782;6.818;2022-10-16T03:11:05;0.55;;;0.30;;
72891;SDS011;61032;50.782;6.818;2022-10-16T03:12:06;1.65;;;0.38;;
72891;SDS011;61032;50.782;6.818;2022-10-16T03:13:06;1.67;;;0.30;;
72891;SDS011;61032;50.782;6.818;2022-10-16T03:14:07;0.77;;;0.20;;
72891;SDS011;61032;50.782;6.818;2022-10-16T03:15:07;0.65;;;0.35;;
72891;SDS011;61032;50.782;6.818;2022-10-16T03:16:08;1.38;;;0.43;;
72891;SDS011;61032;50.782;6.818;2022-10-16T03:17:08;3.50;;;0.45;;
72891;SDS011;61032;50.782;6.818;2022-10-16T03:18:08;0.40;;;0.20;;
72891;SDS011;61032;50.782;6.818;2022-10-16T03:19:09;1.45;;;0.45;;
72891;SDS011;61032;50.782;6.818;2022-10-16T03:20:09;0.80;;;0.30;;
72891;SDS011;61032;50.782;6.818;2022-10-16T03:21:10;2.17;;;0.40;;
72891;SDS011;61032;50.782;6.818;2022-10-16T03:22:10;0.50;;;0.30;;
72891;SDS011;61032;50.782;6.818;2022-10-16T03:23:11;1.58;;;0.50;;
72891;SDS011;61032;50.782;6.818;2022-10-16T03:24:11;0.40;;;0.20;;
72891;SDS011;61032;50.782;6.818;2022-10-16T03:25:12;1.10;;;0.30;;
72891;SDS011;61032;50.782;6.818;2022-10-16T03:26:12;1.95;;;0.55;;
72891;SDS011;61032;50.782;6.818;2022-10-16T03:27:12;1.05;;;0.40;;
72891;SDS011;61032;50.782;6.818;2022-10-16T03:28:13;1.45;;;0.35;;
72891;SDS011;61032;50.782;6.818;2022-10-16T03:29:13;1.35;;;0.30;;
72891;SDS011;61032;50.782;6.818;2022-10-16T03:30:13;2.63;;;0.40;;
72891;SDS011;61032;50.782;6.818;2022-10-16T03:31:14;0.40;;;0.20;;
72891;SDS011;61032;50.782;6.818;2022-10-16T03:32:14;0.30;;;0.20;;
72891;SDS011;61032;50.782;6.818;2022-10-16T03:33:15;1.48;;;0.28;;
72891;SDS011;61032;50.782;6.818;2022-10-16T03:34:15;0.32;;;0.30;;
72891;SDS011;61032;50.782;6.818;2022-10-16T03:35:15;1.75;;;0.45;;
72891;SDS011;61032;50.782;6.818;2022-10-16T03:36:16;2.55;;;0.32;;
72891;SDS011;61032;50.782;6.818;2022-10-16T03:37:16;1.33;;;0.40;;
72891;SDS011;61032;50.782;6.818;2022-10-16T03:38:16;1.33;;;0.32;;
72891;SDS011;61032;50.782;6.818;2022-10-16T03:39:17;0.50;;;0.20;;
72891;SDS011;61032;50.782;6.818;2022-10-16T03:40:17;1.80;;;0.35;;
72891;SDS011;61032;50.782;6.818;2022-10-16T03:41:17;0.75;;;0.32;;
72891;SDS011;61032;50.782;6.818;2022-10-16T03:42:18;1.02;;;0.30;;
72891;SDS011;61032;50.782;6.818;2022-10-16T03:43:19;1.50;;;0.30;;
72891;SDS011;61032;50.782;6.818;2022-10-16T03:44:19;0.85;;;0.40;;
72891;SDS011;61032;50.782;6.818;2022-10-16T03:45:19;0.70;;;0.57;;
72891;SDS011;61032;50.782;6.818;2022-10-16T03:46:20;0.80;;;0.30;;
72891;SDS011;61032;50.782;6.818;2022-10-16T03:47:20;1.23;;;0.25;;
72891;SDS011;61032;50.782;6.818;2022-10-16T03:48:23;0.50;;;0.35;;
72891;SDS011;61032;50.782;6.818;2022-10-16T03:49:23;0.50;;;0.50;;
72891;SDS011;61032;50.782;6.818;2022-10-16T03:50:23;1.25;;;0.47;;
72891;SDS011;61032;50.782;6.818;2022-10-16T03:51:24;0.68;;;0.20;;
72891;SDS011;61032;50.782;6.818;2022-10-16T03:52:24;1.40;;;0.40;;
72891;SDS011;61032;50.782;6.818;2022-10-16T03:53:24;0.82;;;0.35;;
72891;SDS011;61032;50.782;6.818;2022-10-16T03:54:25;1.42;;;0.30;;
72891;SDS011;61032;50.782;6.818;2022-10-16T03:55:26;1.95;;;0.40;;
72891;SDS011;61032;50.782;6.818;2022-10-16T03:56:26;1.45;;;0.50;;
72891;SDS011;61032;50.782;6.818;2022-10-16T03:57:26;0.75;;;0.40;;
72891;SDS011;61032;50.782;6.818;2022-10-16T03:58:27;0.60;;;0.30;;
72891;SDS011;61032;50.782;6.818;2022-10-16T03:59:27;0.40;;;0.30;;
72891;SDS011;61032;50.782;6.818;2022-10-16T04:00:27;1.35;;;0.30;;
72891;SDS011;61032;50.782;6.818;2022-10-16T04:01:28;0.65;;;0.40;;
72891;SDS011;61032;50.782;6.818;2022-10-16T04:02:28;0.63;;;0.40;;
72891;SDS011;61032;50.782;6.818;2022-10-16T04:03:28;1.80;;;0.40;;
72891;SDS011;61032;50.782;6.818;2022-10-16T04:04:29;0.60;;;0.40;;
72891;SDS011;61032;50.782;6.818;2022-10-16T04:05:29;1.25;;;0.30;;
72891;SDS011;61032;50.782;6.818;2022-10-16T04:06:30;0.30;;;0.20;;
72891;SDS011;61032;50.782;6.818;2022-10-16T04:07:30;0.70;;;0.40;;
72891;SDS011;61032;50.782;6.818;2022-10-16T04:08:30;0.52;;;0.40;;
72891;SDS011;61032;50.782;6.818;2022-10-16T04:09:34;1.58;;;0.40;;
72891;SDS011;61032;50.782;6.818;2022-10-16T04:10:34;1.25;;;0.40;;
72891;SDS011;61032;50.782;6.818;2022-10-16T04:11:34;0.60;;;0.43;;
72891;SDS011;61032;50.782;6.818;2022-10-16T04:12:35;1.98;;;0.55;;
72891;SDS011;61032;50.782;6.818;2022-10-16T04:13:35;0.80;;;0.30;;
72891;SDS011;61032;50.782;6.818;2022-10-16T04:14:36;2.17;;;0.43;;
72891;SDS011;61032;50.782;6.818;2022-10-16T04:15:36;2.08;;;0.50;;
72891;SDS011;61032;50.782;6.818;2022-10-16T04:16:37;1.00;;;0.50;;
72891;SDS011;61032;50.782;6.818;2022-10-16T04:17:37;1.23;;;0.43;;
72891;SDS011;61032;50.782;6.818;2022-10-16T04:18:37;0.50;;;0.30;;
72891;SDS011;61032;50.782;6.818;2022-10-16T04:19:38;1.25;;;0.55;;
72891;SDS011;61032;50.782;6.818;2022-10-16T04:20:38;0.90;;;0.50;;
72891;SDS011;61032;50.782;6.818;2022-10-16T04:21:39;1.35;;;0.50;;
72891;SDS011;61032;50.782;6.818;2022-10-16T04:22:39;1.00;;;0.60;;
72891;SDS011;61032;50.782;6.818;2022-10-16T04:23:39;0.90;;;0.57;;
72891;SDS011;61032;50.782;6.818;2022-10-16T04:24:40;2.15;;;0.50;;
72891;SDS011;61032;50.782;6.818;2022-10-16T04:25:40;2.38;;;0.45;;
72891;SDS011;61032;50.782;6.818;2022-10-16T04:26:40;1.23;;;0.43;;
72891;SDS011;61032;50.782;6.818;2022-10-16T04:27:41;0.80;;;0.40;;
72891;SDS011;61032;50.782;6.818;2022-10-16T04:28:41;1.30;;;0.45;;
72891;SDS011;61032;50.782;6.818;2022-10-16T04:29:41;1.33;;;0.52;;
72891;SDS011;61032;50.782;6.818;2022-10-16T04:30:42;1.35;;;0.63;;
72891;SDS011;61032;50.782;6.818;2022-10-16T04:31:42;2.15;;;0.60;;
72891;SDS011;61032;50.782;6.818;2022-10-16T04:32:42;0.90;;;0.52;;
72891;SDS011;61032;50.782;6.818;2022-10-16T04:33:43;1.00;;;0.60;;
72891;SDS011;61032;50.782;6.818;2022-10-16T04:34:43;0.80;;;0.47;;
72891;SDS011;61032;50.782;6.818;2022-10-16T04:35:44;1.15;;;0.52;;
72891;SDS011;61032;50.782;6.818;2022-10-16T04:36:46;2.17;;;0.60;;
72891;SDS011;61032;50.782;6.818;2022-10-16T04:37:48;0.90;;;0.47;;
72891;SDS011;61032;50.782;6.818;2022-10-16T04:38:48;3.20;;;0.57;;
72891;SDS011;61032;50.782;6.818;2022-10-16T04:39:48;1.20;;;0.63;;
72891;SDS011;61032;50.782;6.818;2022-10-16T04:40:48;1.00;;;0.40;;
72891;SDS011;61032;50.782;6.818;2022-10-16T04:41:49;0.85;;;0.50;;
72891;SDS011;61032;50.782;6.818;2022-10-16T04:42:50;0.73;;;0.38;;
72891;SDS011;61032;50.782;6.818;2022-10-16T04:43:50;0.88;;;0.47;;
72891;SDS011;61032;50.782;6.818;2022-10-16T04:44:50;1.05;;;0.60;;
72891;SDS011;61032;50.782;6.818;2022-10-16T04:45:51;0.82;;;0.75;;
72891;SDS011;61032;50.782;6.818;2022-10-16T04:46:51;0.93;;;0.47;;
72891;SDS011;61032;50.782;6.818;2022-10-16T04:47:52;1.30;;;0.82;;
72891;SDS011;61032;50.782;6.818;2022-10-16T04:48:52;0.70;;;0.30;;
72891;SDS011;61032;50.782;6.818;2022-10-16T04:49:53;0.60;;;0.30;;
72891;SDS011;61032;50.782;6.818;2022-10-16T04:50:54;1.20;;;0.50;;
72891;SDS011;61032;50.782;6.818;2022-10-16T04:51:54;1.10;;;0.50;;
72891;SDS011;61032;50.782;6.818;2022-10-16T04:52:55;1.45;;;0.57;;
72891;SDS011;61032;50.782;6.818;2022-10-16T04:53:55;2.25;;;1.25;;
72891;SDS011;61032;50.782;6.818;2022-10-16T04:54:55;1.75;;;0.63;;
72891;SDS011;61032;50.782;6.818;2022-10-16T04:56:00;3.40;;;0.90;;
72891;SDS011;61032;50.782;6.818;2022-10-16T04:57:00;4.22;;;1.05;;
72891;SDS011;61032;50.782;6.818;2022-10-16T04:58:00;4.30;;;1.27;;
72891;SDS011;61032;50.782;6.818;2022-10-16T04:59:01;4.43;;;1.52;;
72891;SDS011;61032;50.782;6.818;2022-10-16T05:00:01;3.92;;;1.17;;
72891;SDS011;61032;50.782;6.818;2022-10-16T05:01:03;2.55;;;1.20;;
72891;SDS011;61032;50.782;6.818;2022-10-16T05:02:03;2.85;;;1.60;;
72891;SDS011;61032;50.782;6.818;2022-10-16T05:03:04;3.58;;;1.63;;
72891;SDS011;61032;50.782;6.818;2022-10-16T05:04:07;4.57;;;1.38;;
72891;SDS011;61032;50.782;6.818;2022-10-16T05:05:08;2.63;;;1.40;;
72891;SDS011;61032;50.782;6.818;2022-10-16T05:06:08;2.60;;;1.02;;
72891;SDS011;61032;50.782;6.818;2022-10-16T05:07:09;2.00;;;1.05;;
72891;SDS011;61032;50.782;6.818;2022-10-16T05:08:09;3.53;;;1.10;;
72891;SDS011;61032;50.782;6.818;2022-10-16T05:09:10;2.38;;;0.95;;
72891;SDS011;61032;50.782;6.818;2022-10-16T05:10:10;1.40;;;0.85;;
72891;SDS011;61032;50.782;6.818;2022-10-16T05:11:11;3.65;;;0.73;;
72891;SDS011;61032;50.782;6.818;2022-10-16T05:12:11;3.25;;;0.70;;
72891;SDS011;61032;50.782;6.818;2022-10-16T05:13:11;2.65;;;0.82;;
72891;SDS011;61032;50.782;6.818;2022-10-16T05:14:12;1.95;;;0.50;;
72891;SDS011;61032;50.782;6.818;2022-10-16T05:15:12;2.85;;;0.60;;
72891;SDS011;61032;50.782;6.818;2022-10-16T05:16:13;2.50;;;0.85;;
72891;SDS011;61032;50.782;6.818;2022-10-16T05:17:13;1.48;;;0.55;;
72891;SDS011;61032;50.782;6.818;2022-10-16T05:18:13;2.08;;;0.70;;
72891;SDS011;61032;50.782;6.818;2022-10-16T05:19:14;0.57;;;0.52;;
72891;SDS011;61032;50.782;6.818;2022-10-16T05:20:14;1.05;;;0.68;;
72891;SDS011;61032;50.782;6.818;2022-10-16T05:21:14;1.30;;;0.70;;
72891;SDS011;61032;50.782;6.818;2022-10-16T05:22:15;2.15;;;0.50;;
72891;SDS011;61032;50.782;6.818;2022-10-16T05:23:15;12.15;;;1.60;;
72891;SDS011;61032;50.782;6.818;2022-10-16T05:24:15;2.65;;;0.65;;
72891;SDS011;61032;50.782;6.818;2022-10-16T05:25:16;1.73;;;1.00;;
72891;SDS011;61032;50.782;6.818;2022-10-16T05:26:16;0.88;;;0.52;;
72891;SDS011;61032;50.782;6.818;2022-10-16T05:27:16;0.85;;;0.57;;
72891;SDS011;61032;50.782;6.818;2022-10-16T05:28:20;2.38;;;0.60;;
72891;SDS011;61032;50.782;6.818;2022-10-16T05:29:20;3.17;;;0.60;;
72891;SDS011;61032;50.782;6.818;2022-10-16T05:30:21;0.68;;;0.30;;
72891;SDS011;61032;50.782;6.818;2022-10-16T05:31:21;4.03;;;2.30;;
72891;SDS011;61032;50.782;6.818;2022-10-16T05:32:22;2.08;;;0.52;;
72891;SDS011;61032;50.782;6.818;2022-10-16T05:33:23;0.90;;;0.55;;
72891;SDS011;61032;50.782;6.818;2022-10-16T05:34:24;0.85;;;0.50;;
72891;SDS011;61032;50.782;6.818;2022-10-16T05:35:24;2.28;;;0.90;;
72891;SDS011;61032;50.782;6.818;2022-10-16T05:36:25;1.25;;;0.90;;
72891;SDS011;61032;50.782;6.818;2022-10-16T05:37:27;2.60;;;0.90;;
72891;SDS011;61032;50.782;6.818;2022-10-16T05:38:27;2.70;;;0.80;;
72891;SDS011;61032;50.782;6.818;2022-10-16T05:39:27;3.50;;;0.88;;
72891;SDS011;61032;50.782;6.818;2022-10-16T05:40:28;0.98;;;0.80;;
72891;SDS011;61032;50.782;6.818;2022-10-16T05:41:28;1.15;;;1.05;;
72891;SDS011;61032;50.782;6.818;2022-10-16T05:42:28;2.20;;;0.90;;
72891;SDS011;61032;50.782;6.818;2022-10-16T05:43:29;2.53;;;1.10;;
72891;SDS011;61032;50.782;6.818;2022-10-16T05:44:30;1.85;;;1.00;;
72891;SDS011;61032;50.782;6.818;2022-10-16T05:45:30;1.52;;;1.10;;
72891;SDS011;61032;50.782;6.818;2022-10-16T05:46:31;2.45;;;1.10;;
72891;SDS011;61032;50.782;6.818;2022-10-16T05:47:31;3.70;;;1.55;;
72891;SDS011;61032;50.782;6.818;2022-10-16T05:48:32;2.03;;;1.50;;
72891;SDS011;61032;50.782;6.818;2022-10-16T05:49:33;2.88;;;1.75;;
72891;SDS011;61032;50.782;6.818;2022-10-16T05:50:33;3.00;;;1.50;;
72891;SDS011;61032;50.782;6.818;2022-10-16T05:51:33;2.95;;;1.55;;
72891;SDS011;61032;50.782;6.818;2022-10-16T05:52:33;4.78;;;1.70;;
72891;SDS011;61032;50.782;6.818;2022-10-16T05:53:34;2.90;;;1.55;;
72891;SDS011;61032;50.782;6.818;2022-10-16T05:54:36;2.63;;;1.10;;
72891;SDS011;61032;50.782;6.818;2022-10-16T05:55:36;1.83;;;0.98;;
72891;SDS011;61032;50.782;6.818;2022-10-16T05:56:37;2.00;;;1.35;;
72891;SDS011;61032;50.782;6.818;2022-10-16T05:57:37;4.20;;;1.45;;
72891;SDS011;61032;50.782;6.818;2022-10-16T05:58:38;2.55;;;0.85;;
72891;SDS011;61032;50.782;6.818;2022-10-16T05:59:40;2.97;;;1.15;;
72891;SDS011;61032;50.782;6.818;2022-10-16T06:00:40;1.63;;;0.73;;
72891;SDS011;61032;50.782;6.818;2022-10-16T06:01:40;3.85;;;1.25;;
72891;SDS011;61032;50.782;6.818;2022-10-16T06:02:41;1.83;;;0.70;;
72891;SDS011;61032;50.782;6.818;2022-10-16T06:03:41;1.35;;;0.88;;
72891;SDS011;61032;50.782;6.818;2022-10-16T06:04:42;1.60;;;0.85;;
72891;SDS011;61032;50.782;6.818;2022-10-16T06:05:42;2.55;;;0.93;;
72891;SDS011;61032;50.782;6.818;2022-10-16T06:06:43;1.65;;;1.00;;
72891;SDS011;61032;50.782;6.818;2022-10-16T06:07:43;1.08;;;0.65;;
72891;SDS011;61032;50.782;6.818;2022-10-16T06:08:44;3.35;;;0.75;;
72891;SDS011;61032;50.782;6.818;2022-10-16T06:09:47;1.15;;;0.88;;
72891;SDS011;61032;50.782;6.818;2022-10-16T06:10:59;2.25;;;1.02;;
72891;SDS011;61032;50.782;6.818;2022-10-16T06:12:00;1.50;;;1.20;;
72891;SDS011;61032;50.782;6.818;2022-10-16T06:13:00;1.75;;;1.02;;
72891;SDS011;61032;50.782;6.818;2022-10-16T06:14:01;1.52;;;0.90;;
72891;SDS011;61032;50.782;6.818;2022-10-16T06:15:06;2.55;;;1.13;;
72891;SDS011;61032;50.782;6.818;2022-10-16T06:16:07;2.20;;;0.95;;
72891;SDS011;61032;50.782;6.818;2022-10-16T06:17:08;2.17;;;1.00;;
72891;SDS011;61032;50.782;6.818;2022-10-16T06:18:08;2.72;;;1.00;;
72891;SDS011;61032;50.782;6.818;2022-10-16T06:19:09;3.35;;;1.20;;
72891;SDS011;61032;50.782;6.818;2022-10-16T06:20:09;1.45;;;1.15;;
72891;SDS011;61032;50.782;6.818;2022-10-16T06:21:11;1.27;;;0.88;;
72891;SDS011;61032;50.782;6.818;2022-10-16T06:22:13;1.67;;;1.00;;
72891;SDS011;61032;50.782;6.818;2022-10-16T06:23:14;2.67;;;0.90;;
72891;SDS011;61032;50.782;6.818;2022-10-16T06:24:14;1.63;;;1.10;;
72891;SDS011;61032;50.782;6.818;2022-10-16T06:25:14;2.78;;;1.08;;
72891;SDS011;61032;50.782;6.818;2022-10-16T06:26:16;1.98;;;1.35;;
72891;SDS011;61032;50.782;6.818;2022-10-16T06:27:17;1.70;;;1.20;;
72891;SDS011;61032;50.782;6.818;2022-10-16T06:28:18;1.58;;;1.13;;
72891;SDS011;61032;50.782;6.818;2022-10-16T06:29:18;4.05;;;1.88;;
72891;SDS011;61032;50.782;6.818;2022-10-16T06:30:18;2.33;;;1.20;;
72891;SDS011;61032;50.782;6.818;2022-10-16T06:31:19;2.42;;;1.08;;